Time;durP1;ratioP1;P1;durP2;ratioP2;P2;SDS_P1;SDS_P2;PMS_P1;PMS_P2;Temp;Humidity;BMP_temperature;BMP_pressure;BME280_temperature;BME280_humidity;BME280_pressure;Samples;Min_cycle;Max_cycle;Signal;HPM_P1;HPM_P2
2022/08/07 00:00:06;;;;;;;1.10;0.40;;;16.40;61.40;;;;;;4770099;30;20044;-80
2022/08/07 00:02:38;;;;;;;1.45;0.50;;;16.30;61.50;;;;;;4770142;30;20044;-80
2022/08/07 00:05:10;;;;;;;1.80;0.47;;;16.30;61.50;;;;;;4758460;30;20080;-80
2022/08/07 00:07:37;;;;;;;1.35;0.50;;;16.30;61.60;;;;;;4774425;30;20474;-80
2022/08/07 00:10:08;;;;;;;1.13;0.40;;;16.30;61.70;;;;;;4783486;30;20058;-80
2022/08/07 00:12:53;;;;;;;1.42;0.40;;;16.20;61.80;;;;;;4759855;30;20122;-81
2022/08/07 00:15:27;;;;;;;0.85;0.40;;;16.20;61.80;;;;;;4758442;30;20048;-80
2022/08/07 00:18:18;;;;;;;1.00;0.50;;;16.20;61.90;;;;;;4755602;30;20405;-80
2022/08/07 00:20:52;;;;;;;1.65;0.57;;;16.20;62.00;;;;;;4766118;30;20052;-80
2022/08/07 00:23:20;;;;;;;2.55;0.50;;;16.20;62.10;;;;;;4788110;30;20087;-80
2022/08/07 00:25:48;;;;;;;2.05;0.55;;;16.20;62.20;;;;;;4802179;29;20108;-80
2022/08/07 00:28:27;;;;;;;1.60;0.60;;;16.10;62.10;;;;;;4780624;30;20052;-81
2022/08/07 00:31:02;;;;;;;1.90;0.47;;;16.10;62.20;;;;;;4782566;29;20066;-81
2022/08/07 00:33:33;;;;;;;1.45;0.60;;;16.10;62.30;;;;;;4788348;29;20059;-81
2022/08/07 00:36:01;;;;;;;1.40;0.50;;;16.10;62.40;;;;;;4792240;29;20051;-81
2022/08/07 00:38:29;;;;;;;1.63;0.63;;;16.00;62.40;;;;;;4771868;30;20054;-83
2022/08/07 00:41:00;;;;;;;1.92;0.60;;;16.00;62.50;;;;;;4783914;29;20146;-81
2022/08/07 00:43:27;;;;;;;1.80;0.52;;;16.00;62.70;;;;;;4789760;29;20042;-81
2022/08/07 00:46:17;;;;;;;2.75;0.70;;;16.00;62.90;;;;;;4776806;29;20043;-81
2022/08/07 00:48:48;;;;;;;1.75;0.75;;;15.90;62.90;;;;;;4779630;29;20122;-81
2022/08/07 00:51:18;;;;;;;1.40;0.55;;;15.90;62.90;;;;;;4774630;30;20055;-81
2022/08/07 00:53:45;;;;;;;1.85;0.52;;;15.90;63.00;;;;;;4780460;29;20048;-80
2022/08/07 00:56:22;;;;;;;2.80;0.60;;;15.80;63.00;;;;;;4782506;30;20443;-80
2022/08/07 00:58:57;;;;;;;1.90;0.70;;;15.80;63.20;;;;;;4767494;29;20492;-80
2022/08/07 01:01:24;;;;;;;1.35;0.60;;;15.80;63.30;;;;;;4763268;30;20052;-80
2022/08/07 01:03:52;;;;;;;1.88;0.75;;;15.80;63.30;;;;;;4790264;29;20042;-80
2022/08/07 01:06:27;;;;;;;1.77;0.70;;;15.70;63.40;;;;;;4803376;29;20050;-80
2022/08/07 01:08:55;;;;;;;2.50;0.80;;;15.70;63.50;;;;;;4780794;29;20390;-80
2022/08/07 01:11:25;;;;;;;1.58;0.75;;;15.70;63.60;;;;;;4779540;30;20369;-80
2022/08/07 01:14:12;;;;;;;1.35;0.30;;;15.60;63.60;;;;;;4814704;29;20059;-80
2022/08/07 01:16:43;;;;;;;2.17;0.60;;;15.60;63.70;;;;;;4795137;29;20134;-80
2022/08/07 01:19:17;;;;;;;1.38;0.60;;;15.60;63.80;;;;;;4783927;30;20113;-80
2022/08/07 01:21:50;;;;;;;2.42;0.60;;;15.60;63.90;;;;;;4768751;30;20079;-80
2022/08/07 01:24:24;;;;;;;1.60;0.50;;;15.60;64.10;;;;;;4771256;30;20043;-80
2022/08/07 01:26:52;;;;;;;1.23;0.50;;;15.50;64.10;;;;;;4769616;30;20055;-80
2022/08/07 01:29:26;;;;;;;1.73;0.60;;;15.50;64.20;;;;;;4788510;29;20108;-81
2022/08/07 01:32:02;;;;;;;2.50;0.63;;;15.50;64.30;;;;;;4786542;30;20055;-80
2022/08/07 01:34:33;;;;;;;2.47;0.70;;;15.40;64.40;;;;;;4777300;29;20062;-81
2022/08/07 01:37:06;;;;;;;3.25;0.70;;;15.40;64.40;;;;;;4786246;29;20580;-80
2022/08/07 01:39:37;;;;;;;2.53;1.00;;;15.40;64.40;;;;;;4773509;30;20385;-81
2022/08/07 01:42:19;;;;;;;1.92;0.70;;;15.40;64.40;;;;;;4780049;29;20130;-81
2022/08/07 01:45:09;;;;;;;2.35;0.80;;;15.40;64.30;;;;;;4747895;30;20129;-80
2022/08/07 01:47:48;;;;;;;1.92;0.80;;;15.40;64.40;;;;;;4794034;29;20047;-80
2022/08/07 01:50:37;;;;;;;1.98;0.95;;;15.40;64.40;;;;;;4786103;29;20146;-80
2022/08/07 01:53:11;;;;;;;1.63;0.75;;;15.40;64.50;;;;;;4770517;30;20051;-80
2022/08/07 01:56:09;;;;;;;2.28;0.80;;;15.40;64.50;;;;;;4785230;29;20141;-80
2022/08/07 01:58:47;;;;;;;1.70;0.52;;;15.40;64.50;;;;;;4800816;29;20059;-80
2022/08/07 02:01:23;;;;;;;1.77;0.70;;;15.40;64.60;;;;;;4772998;29;20138;-81
2022/08/07 02:04:24;;;;;;;1.95;0.70;;;15.40;64.70;;;;;;4791785;29;20493;-80
2022/08/07 02:07:00;;;;;;;1.77;0.80;;;15.30;64.70;;;;;;4791035;29;20134;-80
2022/08/07 02:09:29;;;;;;;3.13;0.85;;;15.30;64.80;;;;;;4771359;30;20039;-81
2022/08/07 02:12:20;;;;;;;2.88;0.60;;;15.30;65.00;;;;;;4769985;29;20058;-80
2022/08/07 02:14:59;;;;;;;2.20;0.93;;;15.20;65.10;;;;;;4786063;30;20100;-81
2022/08/07 02:17:39;;;;;;;1.85;0.82;;;15.20;65.20;;;;;;4785825;30;20043;-81
2022/08/07 02:20:08;;;;;;;2.15;0.80;;;15.20;65.30;;;;;;4770954;30;20058;-81
2022/08/07 02:22:49;;;;;;;;;;;15.10;65.30;;;;;;4786084;29;20134;-81
2022/08/07 02:25:24;;;;;;;2.13;0.93;;;15.10;65.40;;;;;;4771637;30;19932;-81
2022/08/07 02:28:14;;;;;;;2.13;0.80;;;15.00;65.50;;;;;;4785817;30;20054;-81
2022/08/07 02:30:53;;;;;;;2.92;1.00;;;15.00;65.60;;;;;;4800547;29;20120;-80
2022/08/07 02:33:24;;;;;;;2.17;0.90;;;15.00;65.80;;;;;;4774580;29;20471;-82
2022/08/07 02:36:14;;;;;;;2.95;0.90;;;14.90;65.80;;;;;;4785519;30;20454;-81
2022/08/07 02:39:07;;;;;;;2.22;0.90;;;15.00;65.80;;;;;;4780537;29;20067;-81
2022/08/07 02:41:50;;;;;;;2.03;0.90;;;14.90;65.80;;;;;;4800331;29;20071;-81
2022/08/07 02:44:26;;;;;;;3.08;0.70;;;14.90;65.90;;;;;;4783079;29;20071;-81
2022/08/07 02:47:05;;;;;;;2.45;0.80;;;14.90;66.00;;;;;;4790416;29;20074;-81
2022/08/07 02:49:34;;;;;;;2.72;1.20;;;14.90;66.10;;;;;;4766715;30;20052;-80
2022/08/07 02:52:28;;;;;;;2.80;1.05;;;14.90;66.10;;;;;;4770912;30;20135;-80
2022/08/07 02:55:24;;;;;;;2.72;0.77;;;14.90;66.10;;;;;;4789729;29;20054;-81
2022/08/07 02:58:14;;;;;;;1.85;0.80;;;14.90;66.00;;;;;;4793953;29;20091;-81
2022/08/07 03:00:44;;;;;;;2.78;1.10;;;14.90;66.20;;;;;;4784495;29;20048;-81
2022/08/07 03:03:16;;;;;;;1.92;0.77;;;14.80;66.30;;;;;;4777914;29;20047;-81
2022/08/07 03:05:52;;;;;;;2.55;1.00;;;14.80;66.40;;;;;;4805707;29;20401;-82
2022/08/07 03:08:20;;;;;;;2.95;1.00;;;14.80;66.60;;;;;;4771833;29;20193;-81
2022/08/07 03:10:58;;;;;;;2.63;1.17;;;14.80;66.60;;;;;;4805192;29;20055;-81
2022/08/07 03:13:40;;;;;;;2.42;0.90;;;14.70;66.80;;;;;;4809264;29;20061;-81
2022/08/07 03:16:19;;;;;;;3.10;1.25;;;14.60;66.90;;;;;;4782342;29;20062;-81
2022/08/07 03:18:55;;;;;;;3.13;0.90;;;14.60;67.00;;;;;;4777330;30;20070;-81
2022/08/07 03:21:23;;;;;;;3.25;1.10;;;14.60;67.20;;;;;;4807017;29;20035;-81
2022/08/07 03:23:57;;;;;;;2.55;0.80;;;14.50;67.20;;;;;;4802945;29;20043;-81
2022/08/07 03:26:51;;;;;;;3.80;1.45;;;14.50;67.30;;;;;;4776379;29;20104;-81
2022/08/07 03:29:41;;;;;;;2.50;1.00;;;14.50;67.40;;;;;;4784861;29;20142;-80
2022/08/07 03:32:23;;;;;;;3.28;1.10;;;14.50;67.50;;;;;;4766678;30;20066;-81
2022/08/07 03:34:56;;;;;;;3.50;0.98;;;14.40;67.50;;;;;;4788066;29;20054;-80
2022/08/07 03:37:48;;;;;;;2.58;0.98;;;14.50;67.50;;;;;;4802843;29;20419;-81
2022/08/07 03:40:24;;;;;;;3.33;1.17;;;14.50;67.40;;;;;;4789485;29;20082;-80
2022/08/07 03:43:04;;;;;;;2.55;1.13;;;14.50;67.50;;;;;;4803057;29;20047;-81
2022/08/07 03:45:42;;;;;;;2.40;0.98;;;14.50;67.50;;;;;;4778078;29;20047;-81
2022/08/07 03:48:17;;;;;;;2.97;1.20;;;14.50;67.60;;;;;;4780046;29;20062;-76
2022/08/07 03:50:45;;;;;;;3.47;1.60;;;14.50;67.70;;;;;;4779233;30;20055;-77
2022/08/07 03:53:28;;;;;;;3.88;1.40;;;14.50;67.80;;;;;;4791669;29;20119;-77
2022/08/07 03:56:22;;;;;;;2.30;1.00;;;14.40;67.80;;;;;;4785171;30;20047;-77
2022/08/07 03:59:04;;;;;;;3.13;1.35;;;14.50;67.90;;;;;;4769522;30;20409;-77
2022/08/07 04:01:43;;;;;;;2.47;0.90;;;14.40;68.00;;;;;;4779952;29;20627;-77
2022/08/07 04:04:16;;;;;;;2.63;1.08;;;14.40;68.20;;;;;;4787717;29;20055;-77
2022/08/07 04:06:51;;;;;;;3.47;1.20;;;14.30;68.20;;;;;;4776455;29;20078;-77
2022/08/07 04:09:22;;;;;;;2.65;1.13;;;14.30;68.30;;;;;;4797479;29;20513;-77
2022/08/07 04:11:55;;;;;;;2.88;1.20;;;14.30;68.40;;;;;;4795842;29;21034;-77
2022/08/07 04:14:45;;;;;;;2.75;1.00;;;14.20;68.50;;;;;;4799030;29;20499;-77
2022/08/07 04:17:20;;;;;;;2.92;1.00;;;14.20;68.60;;;;;;4798024;29;20101;-77
2022/08/07 04:19:54;;;;;;;2.80;0.70;;;14.10;68.70;;;;;;4783100;29;20463;-77
2022/08/07 04:22:26;;;;;;;4.28;1.42;;;14.10;68.80;;;;;;4806484;29;20047;-76
2022/08/07 04:24:59;;;;;;;2.88;1.30;;;14.00;68.90;;;;;;4773330;30;20062;-77
2022/08/07 04:27:29;;;;;;;2.28;1.17;;;14.00;69.00;;;;;;4801668;29;20051;-77
2022/08/07 04:30:09;;;;;;;2.42;0.85;;;14.00;69.10;;;;;;4779074;29;20066;-77
2022/08/07 04:33:04;;;;;;;1.75;0.82;;;14.00;69.30;;;;;;4772184;30;20458;-76
2022/08/07 04:35:37;;;;;;;2.72;1.00;;;13.90;70.00;;;;;;4769528;30;20047;-77
2022/08/07 04:38:10;;;;;;;3.35;1.10;;;14.00;69.50;;;;;;4786220;29;20039;-77
2022/08/07 04:40:45;;;;;;;3.78;1.25;;;14.00;69.60;;;;;;4802938;29;20501;-76
2022/08/07 04:43:29;;;;;;;3.67;1.70;;;14.00;69.60;;;;;;4783352;29;20048;-77
2022/08/07 04:46:37;;;;;;;2.85;1.23;;;14.00;69.70;;;;;;4783140;30;20106;-77
2022/08/07 04:49:42;;;;;;;3.60;1.10;;;14.00;69.80;;;;;;4803922;29;20061;-77
2022/08/07 04:52:49;;;;;;;4.78;1.38;;;14.00;69.70;;;;;;4764746;30;20120;-78
2022/08/07 04:56:00;;;;;;;2.83;1.58;;;14.00;69.70;;;;;;4789104;29;20054;-78
2022/08/07 04:59:25;;;;;;;1.90;0.80;;;14.10;69.70;;;;;;4772516;30;20075;-79
2022/08/07 05:02:45;;;;;;;3.17;1.38;;;14.10;69.60;;;;;;4773010;29;20108;-78
2022/08/07 05:05:28;;;;;;;3.55;1.50;;;14.20;69.60;;;;;;4759344;29;20058;-78
2022/08/07 05:08:30;;;;;;;3.40;1.40;;;14.20;69.70;;;;;;4770790;30;20442;-78
2022/08/07 05:11:31;;;;;;;2.15;0.90;;;14.20;69.60;;;;;;4784394;29;20054;-77
2022/08/07 05:14:30;;;;;;;2.95;1.27;;;14.20;69.50;;;;;;4796008;29;20412;-77
2022/08/07 05:17:28;;;;;;;3.17;1.20;;;14.30;69.60;;;;;;4788072;29;20549;-77
2022/08/07 05:20:22;;;;;;;2.85;1.33;;;14.30;69.50;;;;;;4766186;30;20063;-78
2022/08/07 05:22:57;;;;;;;3.53;1.45;;;14.40;69.50;;;;;;4813601;29;20054;-78
2022/08/07 05:25:27;;;;;;;3.88;1.10;;;14.40;69.50;;;;;;4790090;29;20070;-79
2022/08/07 05:28:19;;;;;;;3.75;1.40;;;14.50;69.40;;;;;;4780278;30;20051;-79
2022/08/07 05:30:56;;;;;;;4.78;1.77;;;14.50;69.40;;;;;;4783843;29;20127;-80
2022/08/07 05:33:28;;;;;;;4.25;1.50;;;14.60;69.40;;;;;;4768964;29;20073;-80
2022/08/07 05:35:57;;;;;;;4.90;1.77;;;14.60;69.30;;;;;;4779122;29;20515;-78
2022/08/07 05:38:27;;;;;;;4.07;1.70;;;14.70;69.30;;;;;;4783221;30;20055;-77
2022/08/07 05:41:15;;;;;;;3.28;1.45;;;14.80;69.30;;;;;;4792934;29;20138;-79
2022/08/07 05:43:52;;;;;;;3.45;1.48;;;14.80;69.10;;;;;;4784130;30;20416;-80
2022/08/07 05:46:42;;;;;;;3.13;1.30;;;15.00;69.10;;;;;;4775487;29;20046;-79
2022/08/07 05:49:11;;;;;;;3.33;1.65;;;15.00;69.00;;;;;;4771325;30;20051;-79
2022/08/07 05:51:46;;;;;;;3.60;1.55;;;15.10;69.60;;;;;;4780592;29;20134;-80
2022/08/07 05:54:18;;;;;;;3.78;1.60;;;15.20;68.90;;;;;;4806741;29;20054;-77
2022/08/07 05:57:07;;;;;;;4.45;1.80;;;15.30;68.90;;;;;;4786990;29;20404;-78
2022/08/07 05:59:37;;;;;;;3.25;1.50;;;15.30;68.90;;;;;;4781168;29;20438;-79
2022/08/07 06:02:27;;;;;;;3.28;1.65;;;15.40;68.80;;;;;;4793002;29;20138;-79
2022/08/07 06:05:07;;;;;;;5.70;1.98;;;15.50;68.70;;;;;;4795599;29;20046;-78
2022/08/07 06:07:39;;;;;;;4.38;1.65;;;15.70;68.60;;;;;;4770998;30;20058;-79
2022/08/07 06:10:28;;;;;;;4.82;1.50;;;15.80;68.50;;;;;;4773601;30;20047;-79
2022/08/07 06:12:55;;;;;;;3.50;1.77;;;15.90;68.20;;;;;;4771243;30;20074;-79
2022/08/07 06:15:25;;;;;;;3.13;1.40;;;16.00;68.00;;;;;;4767872;30;20540;-79
2022/08/07 06:18:14;;;;;;;3.08;1.45;;;16.20;67.90;;;;;;4765477;29;20075;-79
2022/08/07 06:20:46;;;;;;;3.67;1.65;;;16.30;67.70;;;;;;4805613;29;20147;-79
2022/08/07 06:23:25;;;;;;;4.13;1.73;;;16.40;67.50;;;;;;4768138;30;20505;-82
2022/08/07 06:26:13;;;;;;;3.55;1.45;;;16.50;67.40;;;;;;4770907;30;20055;-82
2022/08/07 06:28:51;;;;;;;4.50;1.58;;;16.70;67.30;;;;;;4802204;29;20043;-82
2022/08/07 06:31:20;;;;;;;2.60;1.45;;;16.80;67.10;;;;;;4785376;29;20059;-83
2022/08/07 06:34:07;;;;;;;4.78;1.77;;;16.90;67.00;;;;;;4790136;29;20053;-83
2022/08/07 06:36:35;;;;;;;4.13;1.42;;;17.00;66.80;;;;;;4769808;29;20138;-83
2022/08/07 06:39:05;;;;;;;3.00;1.50;;;17.10;66.70;;;;;;4777723;30;20109;-83
2022/08/07 06:42:14;;;;;;;3.33;1.70;;;17.20;66.60;;;;;;4799273;29;20045;-83
2022/08/07 06:45:16;;;;;;;3.15;1.50;;;17.40;66.40;;;;;;4791566;29;20187;-79
2022/08/07 06:47:49;;;;;;;3.10;1.35;;;17.40;66.20;;;;;;4800759;29;20411;-79
2022/08/07 06:50:32;;;;;;;3.08;1.30;;;17.60;66.20;;;;;;4765664;30;20047;-79
2022/08/07 06:53:03;;;;;;;3.30;1.23;;;17.70;66.00;;;;;;4774132;29;20059;-79
2022/08/07 06:55:34;;;;;;;2.67;1.23;;;17.80;65.90;;;;;;4774245;30;20047;-79
2022/08/07 06:58:24;;;;;;;3.75;1.10;;;17.90;65.80;;;;;;4783948;29;20070;-79
2022/08/07 07:01:04;;;;;;;4.45;1.40;;;18.00;65.70;;;;;;4804183;29;20134;-79
2022/08/07 07:03:34;;;;;;;3.20;1.17;;;18.10;65.60;;;;;;4816800;29;20051;-79
2022/08/07 07:06:21;;;;;;;3.42;1.15;;;18.20;66.10;;;;;;4767068;30;20054;-79
2022/08/07 07:08:53;;;;;;;2.25;1.00;;;18.30;65.30;;;;;;4782669;29;20055;-79
2022/08/07 07:11:23;;;;;;;3.63;1.48;;;18.40;65.20;;;;;;4791844;29;20055;-79
2022/08/07 07:14:11;;;;;;;2.50;1.02;;;18.50;65.00;;;;;;4773669;29;20141;-79
2022/08/07 07:16:42;;;;;;;3.58;1.50;;;18.60;64.80;;;;;;4788709;30;20416;-79
2022/08/07 07:19:26;;;;;;;2.38;0.98;;;18.70;64.70;;;;;;4780495;29;20046;-79
2022/08/07 07:22:15;;;;;;;2.05;1.10;;;18.70;64.50;;;;;;4801157;29;20058;-79
2022/08/07 07:25:05;;;;;;;2.42;1.02;;;18.90;64.40;;;;;;4793567;29;20450;-79
2022/08/07 07:28:01;;;;;;;1.73;0.80;;;19.00;64.10;;;;;;4773474;30;20130;-79
2022/08/07 07:31:12;;;;;;;3.22;1.23;;;19.10;64.00;;;;;;4800604;29;20150;-79
2022/08/07 07:33:51;;;;;;;5.97;1.00;;;19.20;63.60;;;;;;4778550;30;20060;-80
2022/08/07 07:36:24;;;;;;;1.08;0.70;;;19.40;63.60;;;;;;4802475;29;20047;-79
2022/08/07 07:39:01;;;;;;;2.70;0.80;;;19.40;63.20;;;;;;4773310;30;20058;-79
2022/08/07 07:41:30;;;;;;;1.90;0.75;;;19.50;63.10;;;;;;4776805;29;20514;-79
2022/08/07 07:44:21;;;;;;;2.15;0.77;;;19.60;62.90;;;;;;4776186;30;20131;-80
2022/08/07 07:46:54;;;;;;;1.77;0.75;;;19.80;62.70;;;;;;4776744;29;20048;-80
2022/08/07 07:49:41;;;;;;;1.83;0.85;;;19.80;62.60;;;;;;4780475;30;20057;-79
2022/08/07 07:52:29;;;;;;;2.33;0.93;;;19.90;62.40;;;;;;4775003;30;20561;-79
2022/08/07 07:54:57;;;;;;;0.90;0.50;;;20.00;62.10;;;;;;4803643;29;20105;-79
2022/08/07 07:57:25;;;;;;;2.47;0.65;;;20.10;61.90;;;;;;4773675;29;20055;-83
2022/08/07 08:00:14;;;;;;;1.10;0.60;;;20.30;61.70;;;;;;4783727;29;20458;-83
2022/08/07 08:03:04;;;;;;;2.42;0.55;;;20.40;61.40;;;;;;4803285;29;20047;-83
2022/08/07 08:05:39;;;;;;;0.90;0.45;;;20.50;61.10;;;;;;4791210;29;20043;-83
2022/08/07 08:08:24;;;;;;;1.08;0.40;;;20.70;60.70;;;;;;4780532;30;20055;-84
2022/08/07 08:11:04;;;;;;;1.52;0.60;;;20.70;60.10;;;;;;4807476;29;20408;-83
2022/08/07 08:13:42;;;;;;;2.10;0.60;;;20.80;60.00;;;;;;4777882;29;20045;-83
2022/08/07 08:16:45;;;;;;;1.52;0.50;;;20.90;60.30;;;;;;4791859;29;20055;-83
2022/08/07 08:19:23;;;;;;;1.63;0.52;;;20.90;59.60;;;;;;4800560;29;20560;-83
2022/08/07 08:28:21;;;;;;;1.88;0.50;;;21.30;59.00;;;;;;4790143;29;20065;-83
2022/08/07 08:31:06;;;;;;;2.58;0.50;;;21.50;58.50;;;;;;4797464;29;20079;-83
2022/08/07 08:33:42;;;;;;;1.33;0.50;;;21.60;58.40;;;;;;4801614;29;20434;-83
2022/08/07 08:36:18;;;;;;;1.00;0.40;;;21.70;58.20;;;;;;4802452;29;20054;-83
2022/08/07 08:38:58;;;;;;;1.38;0.57;;;21.90;58.00;;;;;;4810279;29;20055;-83
2022/08/07 08:41:52;;;;;;;2.13;0.40;;;21.90;57.80;;;;;;4786238;29;20079;-83
2022/08/07 08:44:53;;;;;;;1.40;0.68;;;22.10;57.30;;;;;;4787071;29;20059;-83
2022/08/07 08:47:32;;;;;;;0.95;0.57;;;22.10;56.90;;;;;;4764024;30;20134;-83
2022/08/07 08:50:27;;;;;;;1.10;0.40;;;22.20;56.90;;;;;;4787615;29;20535;-84
2022/08/07 08:53:21;;;;;;;1.88;0.50;;;22.20;56.60;;;;;;4772914;29;20059;-83
2022/08/07 08:56:08;;;;;;;;;;;22.40;56.10;;;;;;4762370;30;20048;-83
2022/08/07 08:59:02;;;;;;;1.40;0.60;;;22.30;55.60;;;;;;4753499;29;19929;-83
2022/08/07 09:01:45;;;;;;;1.98;0.52;;;22.40;55.60;;;;;;4795660;29;20295;-80
2022/08/07 09:04:35;;;;;;;1.48;0.50;;;22.40;55.30;;;;;;4799199;29;20047;-80
2022/08/07 09:07:23;;;;;;;1.42;0.50;;;22.40;54.90;;;;;;4788230;29;20121;-79
2022/08/07 09:10:18;;;;;;;1.42;0.60;;;22.50;54.60;;;;;;4772088;30;20481;-80
2022/08/07 09:13:08;;;;;;;1.67;0.52;;;22.60;54.30;;;;;;4771506;30;20055;-80
2022/08/07 09:15:44;;;;;;;3.13;0.50;;;22.70;54.00;;;;;;4775168;29;20522;-78
2022/08/07 09:18:59;;;;;;;1.38;0.40;;;22.70;53.80;;;;;;4781344;29;20079;-78
2022/08/07 09:22:03;;;;;;;1.10;0.47;;;22.90;53.70;;;;;;4791317;29;20119;-79
2022/08/07 09:25:12;;;;;;;1.33;0.60;;;22.90;52.90;;;;;;4783691;29;20048;-78
2022/08/07 09:27:55;;;;;;;1.48;0.68;;;23.00;52.60;;;;;;4793168;29;20408;-78
2022/08/07 09:30:59;;;;;;;1.60;0.52;;;23.00;52.30;;;;;;4787541;29;20138;-77
2022/08/07 09:33:31;;;;;;;1.67;0.40;;;22.90;52.20;;;;;;4790392;29;20064;-78
2022/08/07 09:36:39;;;;;;;1.30;0.52;;;22.90;51.90;;;;;;4794368;29;20047;-78
2022/08/07 09:39:21;;;;;;;1.83;0.60;;;23.10;51.70;;;;;;4781912;29;20059;-75
2022/08/07 09:42:16;;;;;;;1.70;0.40;;;23.30;51.60;;;;;;4786545;29;20484;-75
2022/08/07 09:45:11;;;;;;;;;;;23.60;51.30;;;;;;4798634;29;20130;-75
2022/08/07 09:48:47;;;;;;;0.93;0.30;;;23.60;51.40;;;;;;4797609;29;20030;-75
2022/08/07 09:51:55;;;;;;;1.75;0.25;;;23.80;51.20;;;;;;4798228;29;20063;-77
2022/08/07 09:55:00;;;;;;;1.08;0.20;;;23.90;51.00;;;;;;4763776;29;20096;-75
2022/08/07 09:57:53;;;;;;;1.38;0.40;;;24.10;50.50;;;;;;4786578;29;20059;-77
2022/08/07 10:00:25;;;;;;;0.80;0.38;;;24.10;50.20;;;;;;4799894;29;20055;-78
2022/08/07 10:03:29;;;;;;;0.90;0.32;;;24.10;49.90;;;;;;4772023;29;20112;-75
2022/08/07 10:06:58;;;;;;;0.65;0.30;;;24.10;49.80;;;;;;4804661;29;20049;-77
2022/08/07 10:09:44;;;;;;;1.58;0.50;;;24.20;49.50;;;;;;4751941;30;20056;-74
2022/08/07 10:12:49;;;;;;;1.17;0.50;;;24.20;49.10;;;;;;4788952;29;20055;-75
2022/08/07 10:15:28;;;;;;;1.58;0.40;;;24.10;49.00;;;;;;4786109;29;20296;-75
2022/08/07 10:18:59;;;;;;;1.48;0.50;;;24.20;49.20;;;;;;4807286;29;20039;-75
2022/08/07 10:22:02;;;;;;;1.08;0.30;;;24.30;48.70;;;;;;4726508;30;20057;-75
2022/08/07 10:24:49;;;;;;;1.27;0.50;;;24.40;48.80;;;;;;4803028;29;20074;-75
2022/08/07 10:27:28;;;;;;;0.77;0.40;;;24.50;48.40;;;;;;4795421;29;20050;-78
2022/08/07 10:30:28;;;;;;;0.60;0.40;;;24.50;48.00;;;;;;4782264;29;20062;-75
2022/08/07 10:33:37;;;;;;;1.33;0.40;;;24.50;47.80;;;;;;4797331;29;20043;-74
2022/08/07 10:36:42;;;;;;;0.75;0.40;;;24.60;47.30;;;;;;4787416;29;20166;-76
2022/08/07 10:39:37;;;;;;;0.80;0.40;;;24.60;47.10;;;;;;4806949;29;20114;-78
2022/08/07 10:42:38;;;;;;;1.33;0.50;;;24.60;47.00;;;;;;4791269;29;20047;-78
2022/08/07 10:45:20;;;;;;;1.38;0.50;;;24.90;46.80;;;;;;4791940;29;20047;-78
2022/08/07 10:48:19;;;;;;;;;;;25.20;46.30;;;;;;4778018;30;20130;-79
2022/08/07 10:51:16;;;;;;;2.47;0.60;;;25.30;46.00;;;;;;4803645;29;20274;-74
2022/08/07 10:54:41;;;;;;;0.93;0.50;;;25.60;45.20;;;;;;4783330;29;20790;-77
2022/08/07 10:57:38;;;;;;;3.45;0.60;;;25.70;45.00;;;;;;4780750;29;20051;-76
2022/08/07 11:00:10;;;;;;;1.65;0.60;;;25.80;44.40;;;;;;4790940;29;20130;-76
2022/08/07 11:03:15;;;;;;;1.45;0.50;;;25.90;43.80;;;;;;4783984;30;20071;-77
2022/08/07 11:05:57;;;;;;;1.98;0.60;;;26.10;44.00;;;;;;4803565;29;20059;-76
2022/08/07 11:08:24;;;;;;;2.37;0.50;;;26.40;43.80;;;;;;4795136;29;20481;-76
2022/08/07 11:11:14;;;;;;;0.75;0.40;;;26.50;43.80;;;;;;4791580;29;20066;-75
2022/08/07 11:13:46;;;;;;;1.35;0.57;;;26.70;43.50;;;;;;4795990;29;20146;-76
2022/08/07 11:16:42;;;;;;;1.15;0.50;;;27.00;43.40;;;;;;4786743;29;20475;-76
2022/08/07 11:19:51;;;;;;;1.92;0.50;;;27.30;43.30;;;;;;4796815;29;20108;-76
2022/08/07 11:22:33;;;;;;;1.73;0.45;;;27.60;42.80;;;;;;4790208;29;20108;-76
2022/08/07 11:25:32;;;;;;;1.73;0.60;;;27.40;42.40;;;;;;4790203;29;20525;-76
2022/08/07 11:28:27;;;;;;;0.80;0.40;;;27.60;42.10;;;;;;4785744;29;20054;-76
2022/08/07 11:31:21;;;;;;;1.30;0.50;;;27.40;42.10;;;;;;4790535;29;20070;-76
2022/08/07 11:33:56;;;;;;;0.93;0.50;;;27.20;42.10;;;;;;4764268;30;20048;-77
2022/08/07 11:36:38;;;;;;;1.33;0.50;;;26.60;42.50;;;;;;4770980;29;20117;-76
2022/08/07 11:39:15;;;;;;;1.55;0.57;;;26.10;43.20;;;;;;4798564;29;20123;-76
2022/08/07 11:42:12;;;;;;;1.55;0.50;;;25.70;43.70;;;;;;4795959;29;20047;-76
2022/08/07 11:44:51;;;;;;;1.17;0.63;;;25.30;44.20;;;;;;4803331;29;20078;-73
2022/08/07 11:47:53;;;;;;;0.80;0.40;;;25.10;44.60;;;;;;4788495;29;20444;-74
2022/08/07 11:50:44;;;;;;;1.05;0.50;;;25.20;44.80;;;;;;4747458;30;20047;-77
2022/08/07 11:53:49;;;;;;;1.20;0.57;;;26.20;43.80;;;;;;4778442;29;20440;-77
2022/08/07 11:56:56;;;;;;;0.75;0.50;;;27.10;42.30;;;;;;4769100;30;20051;-78
2022/08/07 12:00:05;;;;;;;1.48;0.60;;;27.70;41.70;;;;;;4784157;29;20064;-78
2022/08/07 12:03:13;;;;;;;1.33;0.60;;;28.40;41.00;;;;;;4793331;29;20121;-77
2022/08/07 12:06:33;;;;;;;2.00;0.60;;;28.90;40.30;;;;;;4782401;29;20040;-76
2022/08/07 12:09:23;;;;;;;1.52;0.68;;;29.20;39.80;;;;;;4770431;30;20051;-76
2022/08/07 12:12:07;;;;;;;0.80;0.40;;;29.50;39.30;;;;;;4770669;30;20039;-77
2022/08/07 12:14:51;;;;;;;2.33;0.60;;;29.70;39.70;;;;;;4786919;29;20051;-75
2022/08/07 12:17:53;;;;;;;1.40;0.60;;;29.90;39.20;;;;;;4788030;29;20058;-77
2022/08/07 12:20:36;;;;;;;2.15;0.77;;;29.30;39.50;;;;;;4768947;29;20048;-81
2022/08/07 12:23:23;;;;;;;1.73;0.57;;;28.60;39.70;;;;;;4802997;29;20112;-80
2022/08/07 12:26:25;;;;;;;3.38;0.60;;;27.80;40.50;;;;;;4769564;29;20134;-80
2022/08/07 12:29:47;;;;;;;2.17;0.70;;;28.30;40.50;;;;;;4806898;29;20048;-80
2022/08/07 12:32:43;;;;;;;2.42;0.70;;;29.00;39.50;;;;;;4755764;30;20154;-79
2022/08/07 12:35:16;;;;;;;1.83;0.60;;;29.50;38.90;;;;;;4747041;30;20080;-81
2022/08/07 12:37:50;;;;;;;1.85;0.50;;;30.00;39.00;;;;;;4714469;30;20462;-82
2022/08/07 12:40:38;;;;;;;;;;;30.60;38.70;;;;;;4742255;30;20055;-78
2022/08/07 12:43:22;;;;;;;1.70;0.50;;;30.70;38.50;;;;;;4766533;29;20023;-81
2022/08/07 12:46:23;;;;;;;2.03;0.65;;;30.00;39.00;;;;;;4758122;30;20058;-79
2022/08/07 12:49:23;;;;;;;0.80;0.50;;;29.80;39.00;;;;;;4796200;29;20104;-81
2022/08/07 12:52:21;;;;;;;1.95;0.60;;;30.10;39.00;;;;;;4792864;29;20070;-78
2022/08/07 12:55:33;;;;;;;1.60;0.50;;;29.80;38.80;;;;;;4779506;29;20055;-76
2022/08/07 12:58:11;;;;;;;0.90;0.40;;;28.70;39.40;;;;;;4695793;30;20061;-76
2022/08/07 13:00:59;;;;;;;1.73;0.40;;;28.50;40.00;;;;;;4783812;29;20066;-77
2022/08/07 13:03:53;;;;;;;0.82;0.40;;;28.30;40.20;;;;;;4786915;29;20062;-75
2022/08/07 13:07:05;;;;;;;1.25;0.50;;;28.50;40.10;;;;;;4788012;29;20108;-76
2022/08/07 13:10:07;;;;;;;1.02;0.32;;;30.00;38.90;;;;;;4795119;29;20515;-76
2022/08/07 13:13:03;;;;;;;1.10;0.40;;;31.00;38.20;;;;;;4787146;29;20047;-78
2022/08/07 13:15:46;;;;;;;1.15;0.40;;;32.10;37.40;;;;;;4790876;29;20074;-76
2022/08/07 13:18:58;;;;;;;1.10;0.47;;;32.80;36.90;;;;;;4798214;29;20051;-77
2022/08/07 13:21:41;;;;;;;0.77;0.40;;;33.50;36.50;;;;;;4779539;29;20063;-77
2022/08/07 13:24:35;;;;;;;0.90;0.40;;;34.00;36.20;;;;;;4786388;29;20055;-76
2022/08/07 13:27:16;;;;;;;0.80;0.40;;;33.60;36.30;;;;;;4765774;29;20442;-78
2022/08/07 13:30:05;;;;;;;2.55;0.55;;;33.60;35.90;;;;;;4792781;29;20055;-76
2022/08/07 13:32:58;;;;;;;0.90;0.50;;;33.70;35.50;;;;;;4778804;30;20468;-77
2022/08/07 13:35:41;;;;;;;1.27;0.50;;;34.00;35.30;;;;;;4762754;30;20051;-82
2022/08/07 13:38:34;;;;;;;1.10;0.60;;;34.10;35.00;;;;;;4779232;29;20569;-81
2022/08/07 13:41:29;;;;;;;1.17;0.50;;;33.70;34.80;;;;;;4806146;29;20576;-78
2022/08/07 13:44:00;;;;;;;1.75;0.95;;;32.80;34.40;;;;;;4794753;29;20394;-79
2022/08/07 13:46:33;;;;;;;1.30;0.65;;;31.10;34.60;;;;;;4773062;29;20046;-77
2022/08/07 13:49:18;;;;;;;1.60;0.82;;;29.90;35.60;;;;;;4796815;29;20054;-76
2022/08/07 13:52:07;;;;;;;1.58;0.82;;;29.10;36.30;;;;;;4770099;29;20098;-75
2022/08/07 13:54:58;;;;;;;1.15;0.55;;;28.80;36.50;;;;;;4761614;29;20051;-76
2022/08/07 13:57:28;;;;;;;1.27;0.50;;;28.40;36.80;;;;;;4789867;29;20075;-75
2022/08/07 14:00:06;;;;;;;1.02;0.50;;;28.30;37.10;;;;;;4791694;29;20457;-74
2022/08/07 14:02:41;;;;;;;0.63;0.30;;;28.70;37.10;;;;;;4786469;29;20502;-75
2022/08/07 14:05:22;;;;;;;0.70;0.38;;;28.70;37.00;;;;;;4770026;29;20125;-75
2022/08/07 14:07:58;;;;;;;0.60;0.40;;;28.40;37.30;;;;;;4786494;29;20047;-75
2022/08/07 14:10:35;;;;;;;0.73;0.40;;;28.50;37.80;;;;;;4785831;29;20048;-75
2022/08/07 14:13:14;;;;;;;1.17;0.52;;;29.10;37.50;;;;;;4767237;30;20055;-76
2022/08/07 14:15:49;;;;;;;1.85;0.60;;;30.30;36.60;;;;;;4791026;29;20047;-75
2022/08/07 14:18:27;;;;;;;0.80;0.30;;;31.50;35.70;;;;;;4786316;29;20497;-78
2022/08/07 14:21:28;;;;;;;0.90;0.40;;;32.60;34.80;;;;;;4767709;29;20052;-75
2022/08/07 14:24:29;;;;;;;1.02;0.52;;;33.50;34.30;;;;;;4791579;29;20104;-75